Terminal Aerodrome Forecast
Issued by NWS

Home | Current Version | Previous Version | Text Only | Print | Product List | Glossary On
Versions: 1 2 3 4 5 6 7 8 9 10 11 12 13 14
000
FTUS44 KEPZ 280542
TAFTCS
TAF
KTCS 280542Z 2806/2906 25010KT P6SM SCT080 BKN120 BKN250
      TEMPO 2808/2812 -SHRA
     FM281500 25020G28KT P6SM VCSH SCT060 SCT090
     FM290000 28012G22KT P6SM SCT060 SCT090=

USA.gov is the U.S. government's official web portal to all federal, state and local government web resources and services.